sensor_id;sensor_type;location;lat;lon;timestamp;pressure;altitude;pressure_sealevel;temperature;humidity
12101;BME280;6113;42.678;23.334;2022-08-11T00:00:07;94939.22;;;23.36;72.20
12101;BME280;6113;42.678;23.334;2022-08-11T00:02:36;94925.84;;;23.34;71.98
12101;BME280;6113;42.678;23.334;2022-08-11T00:05:08;94897.47;;;23.15;71.81
12101;BME280;6113;42.678;23.334;2022-08-11T00:07:42;94923.38;;;23.44;71.63
12101;BME280;6113;42.678;23.334;2022-08-11T00:10:11;94925.94;;;23.42;71.47
12101;BME280;6113;42.678;23.334;2022-08-11T00:12:39;94895.00;;;23.25;71.58
12101;BME280;6113;42.678;23.334;2022-08-11T00:15:07;94926.50;;;23.40;71.75
12101;BME280;6113;42.678;23.334;2022-08-11T00:17:35;94928.50;;;23.40;71.96
12101;BME280;6113;42.678;23.334;2022-08-11T00:20:07;94904.84;;;23.13;72.33
12101;BME280;6113;42.678;23.334;2022-08-11T00:22:35;94912.34;;;23.05;73.34
12101;BME280;6113;42.678;23.334;2022-08-11T00:25:09;94933.91;;;23.12;73.36
12101;BME280;6113;42.678;23.334;2022-08-11T00:27:39;94924.69;;;22.91;74.71
12101;BME280;6113;42.678;23.334;2022-08-11T00:30:07;94891.41;;;22.78;74.43
12101;BME280;6113;42.678;23.334;2022-08-11T00:32:36;94902.06;;;22.87;74.27
12101;BME280;6113;42.678;23.334;2022-08-11T00:35:07;94920.88;;;23.07;73.98
12101;BME280;6113;42.678;23.334;2022-08-11T00:37:37;94926.97;;;23.05;74.03
12101;BME280;6113;42.678;23.334;2022-08-11T00:40:07;94918.41;;;22.91;74.99
12101;BME280;6113;42.678;23.334;2022-08-11T00:42:50;94896.75;;;22.50;76.33
12101;BME280;6113;42.678;23.334;2022-08-11T00:45:23;94924.38;;;22.56;76.90
12101;BME280;6113;42.678;23.334;2022-08-11T00:47:59;94917.22;;;22.60;76.89
12101;BME280;6113;42.678;23.334;2022-08-11T00:50:38;94918.53;;;22.72;76.45
12101;BME280;6113;42.678;23.334;2022-08-11T00:56:12;94916.59;;;22.67;76.90
12101;BME280;6113;42.678;23.334;2022-08-11T00:59:25;94915.19;;;22.48;77.77
12101;BME280;6113;42.678;23.334;2022-08-11T01:02:11;94881.44;;;22.31;77.40
12101;BME280;6113;42.678;23.334;2022-08-11T01:04:58;94917.88;;;22.66;76.90
12101;BME280;6113;42.678;23.334;2022-08-11T01:10:57;94920.41;;;22.90;75.92
12101;BME280;6113;42.678;23.334;2022-08-11T01:17:18;94914.03;;;22.82;76.62
12101;BME280;6113;42.678;23.334;2022-08-11T01:20:10;94909.56;;;22.79;76.77
12101;BME280;6113;42.678;23.334;2022-08-11T01:23:11;94913.16;;;22.74;76.90
12101;BME280;6113;42.678;23.334;2022-08-11T01:25:57;94914.25;;;22.71;76.94
12101;BME280;6113;42.678;23.334;2022-08-11T01:29:04;94910.19;;;22.72;77.06
12101;BME280;6113;42.678;23.334;2022-08-11T01:31:56;94911.25;;;22.69;76.93
12101;BME280;6113;42.678;23.334;2022-08-11T01:40:55;94901.22;;;22.66;77.29
12101;BME280;6113;42.678;23.334;2022-08-11T01:43:56;94896.53;;;22.61;77.61
12101;BME280;6113;42.678;23.334;2022-08-11T01:46:50;94890.13;;;22.53;77.48
12101;BME280;6113;42.678;23.334;2022-08-11T01:49:24;94898.13;;;22.57;77.92
12101;BME280;6113;42.678;23.334;2022-08-11T01:52:05;94896.09;;;22.57;77.91
12101;BME280;6113;42.678;23.334;2022-08-11T01:54:40;94900.91;;;22.57;77.78
12101;BME280;6113;42.678;23.334;2022-08-11T01:57:19;94902.94;;;22.56;77.99
12101;BME280;6113;42.678;23.334;2022-08-11T01:59:55;94901.13;;;22.59;77.75
12101;BME280;6113;42.678;23.334;2022-08-11T02:02:38;94896.19;;;22.52;78.19
12101;BME280;6113;42.678;23.334;2022-08-11T02:05:24;94896.75;;;22.50;78.36
12101;BME280;6113;42.678;23.334;2022-08-11T02:07:57;94894.81;;;22.45;78.60
12101;BME280;6113;42.678;23.334;2022-08-11T02:10:32;94901.63;;;22.44;78.62
12101;BME280;6113;42.678;23.334;2022-08-11T02:13:33;94900.66;;;22.42;78.68
12101;BME280;6113;42.678;23.334;2022-08-11T02:16:12;94868.94;;;22.24;78.54
12101;BME280;6113;42.678;23.334;2022-08-11T02:18:47;94899.72;;;22.39;78.71
12101;BME280;6113;42.678;23.334;2022-08-11T02:21:44;94902.25;;;22.37;79.00
12101;BME280;6113;42.678;23.334;2022-08-11T02:24:34;94895.22;;;22.36;79.12
12101;BME280;6113;42.678;23.334;2022-08-11T02:27:08;94902.34;;;22.32;79.13
12101;BME280;6113;42.678;23.334;2022-08-11T02:29:54;94896.91;;;22.26;79.77
12101;BME280;6113;42.678;23.334;2022-08-11T02:32:34;94909.28;;;22.25;79.69
12101;BME280;6113;42.678;23.334;2022-08-11T02:35:24;94876.06;;;22.07;79.65
12101;BME280;6113;42.678;23.334;2022-08-11T02:38:04;94900.94;;;22.25;79.41
12101;BME280;6113;42.678;23.334;2022-08-11T02:40:37;94899.38;;;22.30;79.08
12101;BME280;6113;42.678;23.334;2022-08-11T02:43:17;94880.75;;;22.12;79.79
12101;BME280;6113;42.678;23.334;2022-08-11T02:45:53;94888.44;;;22.19;79.96
12101;BME280;6113;42.678;23.334;2022-08-11T02:48:37;94892.50;;;22.18;79.87
12101;BME280;6113;42.678;23.334;2022-08-11T02:51:29;94864.38;;;21.96;80.32
12101;BME280;6113;42.678;23.334;2022-08-11T02:54:07;94848.03;;;21.79;80.30
12101;BME280;6113;42.678;23.334;2022-08-11T02:56:46;94869.75;;;21.94;80.32
12101;BME280;6113;42.678;23.334;2022-08-11T02:59:23;94523.84;;;19.58;80.37
12101;BME280;6113;42.678;23.334;2022-08-11T03:02:15;94897.25;;;22.05;80.63
12101;BME280;6113;42.678;23.334;2022-08-11T03:05:04;94865.06;;;21.70;81.10
12101;BME280;6113;42.678;23.334;2022-08-11T03:07:40;94898.13;;;22.00;81.12
12101;BME280;6113;42.678;23.334;2022-08-11T03:10:21;94908.47;;;21.99;81.04
12101;BME280;6113;42.678;23.334;2022-08-11T03:12:52;94882.91;;;21.75;81.59
12101;BME280;6113;42.678;23.334;2022-08-11T03:15:43;94907.47;;;21.97;81.16
12101;BME280;6113;42.678;23.334;2022-08-11T03:18:36;94907.78;;;21.93;81.40
12101;BME280;6113;42.678;23.334;2022-08-11T03:21:11;94906.72;;;21.83;81.57
12101;BME280;6113;42.678;23.334;2022-08-11T03:23:49;94907.06;;;21.93;81.48
12101;BME280;6113;42.678;23.334;2022-08-11T03:26:25;94885.00;;;21.69;81.96
12101;BME280;6113;42.678;23.334;2022-08-11T03:29:03;94900.41;;;21.83;81.99
12101;BME280;6113;42.678;23.334;2022-08-11T03:31:35;94897.63;;;21.83;82.01
12101;BME280;6113;42.678;23.334;2022-08-11T03:34:06;94901.69;;;21.82;81.88
12101;BME280;6113;42.678;23.334;2022-08-11T03:36:53;94907.09;;;21.74;82.47
12101;BME280;6113;42.678;23.334;2022-08-11T03:39:34;94880.63;;;21.60;82.32
12101;BME280;6113;42.678;23.334;2022-08-11T03:42:11;94912.66;;;21.74;82.53
12101;BME280;6113;42.678;23.334;2022-08-11T03:44:51;94911.56;;;21.77;82.40
12101;BME280;6113;42.678;23.334;2022-08-11T03:47:39;94906.88;;;21.72;82.67
12101;BME280;6113;42.678;23.334;2022-08-11T03:50:23;94900.97;;;21.63;83.15
12101;BME280;6113;42.678;23.334;2022-08-11T03:53:04;94894.56;;;21.55;83.31
12101;BME280;6113;42.678;23.334;2022-08-11T03:55:53;94910.56;;;21.62;83.35
12101;BME280;6113;42.678;23.334;2022-08-11T03:58:50;94918.03;;;21.67;83.27
12101;BME280;6113;42.678;23.334;2022-08-11T04:10:39;94915.28;;;21.67;83.29
12101;BME280;6113;42.678;23.334;2022-08-11T04:13:39;94918.19;;;21.74;83.11
12101;BME280;6113;42.678;23.334;2022-08-11T04:16:46;94922.97;;;21.74;83.14
12101;BME280;6113;42.678;23.334;2022-08-11T04:19:37;94920.00;;;21.72;83.05
12101;BME280;6113;42.678;23.334;2022-08-11T04:22:48;94914.97;;;21.70;83.31
12101;BME280;6113;42.678;23.334;2022-08-11T04:25:36;94895.75;;;21.59;83.13
12101;BME280;6113;42.678;23.334;2022-08-11T04:28:27;94913.34;;;21.62;83.15
12101;BME280;6113;42.678;23.334;2022-08-11T04:31:18;94920.25;;;21.87;82.67
12101;BME280;6113;42.678;23.334;2022-08-11T04:40:25;94889.56;;;21.98;81.66
12101;BME280;6113;42.678;23.334;2022-08-11T04:43:26;94911.28;;;22.25;80.56
12101;BME280;6113;42.678;23.334;2022-08-11T04:46:19;94918.28;;;22.44;79.71
12101;BME280;6113;42.678;23.334;2022-08-11T04:49:17;94920.75;;;22.61;79.03
12101;BME280;6113;42.678;23.334;2022-08-11T04:52:32;94925.34;;;22.71;76.67
12101;BME280;6113;42.678;23.334;2022-08-11T04:55:44;94907.63;;;22.48;76.81
12101;BME280;6113;42.678;23.334;2022-08-11T04:58:48;94928.97;;;22.92;75.33
12101;BME280;6113;42.678;23.334;2022-08-11T05:01:44;94893.75;;;22.87;74.69
12101;BME280;6113;42.678;23.334;2022-08-11T05:04:51;94933.66;;;23.36;73.37
12101;BME280;6113;42.678;23.334;2022-08-11T05:08:00;94928.28;;;23.51;71.91
12101;BME280;6113;42.678;23.334;2022-08-11T05:10:50;94920.38;;;23.42;71.61
12101;BME280;6113;42.678;23.334;2022-08-11T05:13:26;94924.31;;;23.13;73.44
12101;BME280;6113;42.678;23.334;2022-08-11T05:16:16;94914.31;;;23.30;72.62
12101;BME280;6113;42.678;23.334;2022-08-11T05:19:02;94895.72;;;23.25;71.88
12101;BME280;6113;42.678;23.334;2022-08-11T05:21:52;94927.63;;;23.45;71.92
12101;BME280;6113;42.678;23.334;2022-08-11T05:24:41;94926.59;;;23.35;71.66
12101;BME280;6113;42.678;23.334;2022-08-11T05:27:32;94914.00;;;23.34;71.64
12101;BME280;6113;42.678;23.334;2022-08-11T05:30:19;94898.06;;;23.34;71.34
12101;BME280;6113;42.678;23.334;2022-08-11T05:33:10;94898.56;;;23.46;70.36
12101;BME280;6113;42.678;23.334;2022-08-11T05:36:11;94922.22;;;23.73;69.90
12101;BME280;6113;42.678;23.334;2022-08-11T05:38:49;94909.09;;;23.60;69.82
12101;BME280;6113;42.678;23.334;2022-08-11T05:41:35;94924.94;;;23.52;70.81
12101;BME280;6113;42.678;23.334;2022-08-11T05:44:22;94920.69;;;23.51;70.96
12101;BME280;6113;42.678;23.334;2022-08-11T05:47:06;94900.50;;;23.38;71.12
12101;BME280;6113;42.678;23.334;2022-08-11T05:49:52;94924.72;;;23.63;70.99
12101;BME280;6113;42.678;23.334;2022-08-11T05:52:37;94919.06;;;23.56;70.75
12101;BME280;6113;42.678;23.334;2022-08-11T05:55:22;94923.75;;;23.74;70.40
12101;BME280;6113;42.678;23.334;2022-08-11T05:58:08;94915.25;;;23.99;69.32
12101;BME280;6113;42.678;23.334;2022-08-11T06:00:43;94920.09;;;24.19;68.57
12101;BME280;6113;42.678;23.334;2022-08-11T06:03:19;94928.22;;;24.38;67.87
12101;BME280;6113;42.678;23.334;2022-08-11T06:05:48;94910.63;;;24.63;67.19
12101;BME280;6113;42.678;23.334;2022-08-11T06:08:15;94916.13;;;24.76;66.18
12101;BME280;6113;42.678;23.334;2022-08-11T06:10:43;94917.09;;;24.86;66.11
12101;BME280;6113;42.678;23.334;2022-08-11T06:13:15;94920.63;;;25.14;65.21
12101;BME280;6113;42.678;23.334;2022-08-11T06:15:45;94918.31;;;25.33;64.01
12101;BME280;6113;42.678;23.334;2022-08-11T06:18:13;94910.56;;;25.47;63.97
12101;BME280;6113;42.678;23.334;2022-08-11T06:20:46;94875.19;;;25.42;63.15
12101;BME280;6113;42.678;23.334;2022-08-11T06:23:14;94907.66;;;25.74;62.86
12101;BME280;6113;42.678;23.334;2022-08-11T06:25:44;94909.38;;;25.85;61.50
12101;BME280;6113;42.678;23.334;2022-08-11T06:28:12;94906.16;;;25.73;61.64
12101;BME280;6113;42.678;23.334;2022-08-11T06:30:45;94908.47;;;25.97;61.69
12101;BME280;6113;42.678;23.334;2022-08-11T06:33:17;94899.59;;;26.14;61.08
12101;BME280;6113;42.678;23.334;2022-08-11T06:35:50;94903.50;;;26.18;60.55
12101;BME280;6113;42.678;23.334;2022-08-11T06:38:35;94879.47;;;26.00;60.61
12101;BME280;6113;42.678;23.334;2022-08-11T06:41:06;94905.53;;;26.32;60.03
12101;BME280;6113;42.678;23.334;2022-08-11T06:44:05;94913.75;;;26.53;59.10
12101;BME280;6113;42.678;23.334;2022-08-11T06:46:35;94908.34;;;26.70;58.09
12101;BME280;6113;42.678;23.334;2022-08-11T06:49:04;94877.22;;;26.73;57.31
12101;BME280;6113;42.678;23.334;2022-08-11T06:51:52;94896.63;;;26.64;56.58
12101;BME280;6113;42.678;23.334;2022-08-11T06:54:19;94908.31;;;26.85;56.08
12101;BME280;6113;42.678;23.334;2022-08-11T06:56:47;94909.97;;;27.10;55.43
12101;BME280;6113;42.678;23.334;2022-08-11T06:59:33;94900.97;;;27.26;54.77
12101;BME280;6113;42.678;23.334;2022-08-11T07:02:27;94901.25;;;27.45;54.55
12101;BME280;6113;42.678;23.334;2022-08-11T07:05:00;94902.63;;;27.29;54.70
12101;BME280;6113;42.678;23.334;2022-08-11T07:07:51;94902.34;;;27.57;54.53
12101;BME280;6113;42.678;23.334;2022-08-11T07:10:52;94895.00;;;27.77;53.25
12101;BME280;6113;42.678;23.334;2022-08-11T07:13:43;94911.56;;;27.82;52.57
12101;BME280;6113;42.678;23.334;2022-08-11T07:16:30;94910.41;;;27.85;51.29
12101;BME280;6113;42.678;23.334;2022-08-11T07:19:02;94915.69;;;27.81;51.24
12101;BME280;6113;42.678;23.334;2022-08-11T07:21:47;94914.53;;;27.84;51.95
12101;BME280;6113;42.678;23.334;2022-08-11T07:24:35;94893.38;;;27.66;51.47
12101;BME280;6113;42.678;23.334;2022-08-11T07:27:17;94910.22;;;27.51;51.34
12101;BME280;6113;42.678;23.334;2022-08-11T07:30:06;94917.97;;;27.60;51.56
12101;BME280;6113;42.678;23.334;2022-08-11T07:32:39;94883.31;;;27.63;50.62
12101;BME280;6113;42.678;23.334;2022-08-11T07:35:10;94894.72;;;27.50;51.53
12101;BME280;6113;42.678;23.334;2022-08-11T07:37:40;94887.22;;;27.68;50.63
12101;BME280;6113;42.678;23.334;2022-08-11T07:40:10;94893.94;;;27.96;50.78
12101;BME280;6113;42.678;23.334;2022-08-11T07:42:37;94902.41;;;28.21;50.22
12101;BME280;6113;42.678;23.334;2022-08-11T07:45:07;94899.81;;;28.40;49.09
12101;BME280;6113;42.678;23.334;2022-08-11T07:47:53;94905.03;;;28.11;49.77
12101;BME280;6113;42.678;23.334;2022-08-11T07:50:46;94897.69;;;28.48;49.52
12101;BME280;6113;42.678;23.334;2022-08-11T07:53:32;94906.50;;;28.44;48.43
12101;BME280;6113;42.678;23.334;2022-08-11T07:56:03;94882.44;;;28.41;48.65
12101;BME280;6113;42.678;23.334;2022-08-11T07:58:33;94908.31;;;28.73;48.72
12101;BME280;6113;42.678;23.334;2022-08-11T08:01:20;94772.81;;;27.96;47.37
12101;BME280;6113;42.678;23.334;2022-08-11T08:04:08;94877.59;;;28.83;47.26
12101;BME280;6113;42.678;23.334;2022-08-11T08:06:55;94899.13;;;28.97;47.22
12101;BME280;6113;42.678;23.334;2022-08-11T08:09:39;94888.00;;;29.24;46.22
12101;BME280;6113;42.678;23.334;2022-08-11T08:12:25;94888.03;;;29.41;45.57
12101;BME280;6113;42.678;23.334;2022-08-11T08:15:11;94886.94;;;29.53;45.48
12101;BME280;6113;42.678;23.334;2022-08-11T08:17:57;94850.63;;;28.87;46.74
12101;BME280;6113;42.678;23.334;2022-08-11T08:20:27;94882.06;;;29.03;46.91
12101;BME280;6113;42.678;23.334;2022-08-11T08:22:58;94879.66;;;29.16;46.08
12101;BME280;6113;42.678;23.334;2022-08-11T08:25:27;94872.25;;;29.45;44.83
12101;BME280;6113;42.678;23.334;2022-08-11T08:27:56;94878.16;;;29.66;44.57
12101;BME280;6113;42.678;23.334;2022-08-11T08:30:25;94881.38;;;29.89;44.55
12101;BME280;6113;42.678;23.334;2022-08-11T08:33:11;94864.69;;;30.08;43.77
12101;BME280;6113;42.678;23.334;2022-08-11T08:35:40;94875.47;;;30.11;43.31
12101;BME280;6113;42.678;23.334;2022-08-11T08:38:10;94848.50;;;29.72;44.20
12101;BME280;6113;42.678;23.334;2022-08-11T08:40:39;94863.41;;;29.92;43.68
12101;BME280;6113;42.678;23.334;2022-08-11T08:43:08;94868.59;;;29.35;44.50
12101;BME280;6113;42.678;23.334;2022-08-11T08:45:41;94868.69;;;29.28;44.98
12101;BME280;6113;42.678;23.334;2022-08-11T08:48:11;94879.69;;;28.99;45.38
12101;BME280;6113;42.678;23.334;2022-08-11T08:50:44;94877.19;;;28.86;45.66
12101;BME280;6113;42.678;23.334;2022-08-11T08:53:34;94864.66;;;29.04;44.56
12101;BME280;6113;42.678;23.334;2022-08-11T08:56:02;94873.47;;;29.35;44.10
12101;BME280;6113;42.678;23.334;2022-08-11T08:58:33;94865.16;;;29.27;44.75
12101;BME280;6113;42.678;23.334;2022-08-11T09:01:01;94829.03;;;28.80;45.07
12101;BME280;6113;42.678;23.334;2022-08-11T09:03:29;94860.38;;;29.20;44.35
12101;BME280;6113;42.678;23.334;2022-08-11T09:05:57;94839.72;;;29.42;43.94
12101;BME280;6113;42.678;23.334;2022-08-11T09:08:25;94851.06;;;29.78;44.16
12101;BME280;6113;42.678;23.334;2022-08-11T09:10:55;94840.16;;;29.65;44.50
12101;BME280;6113;42.678;23.334;2022-08-11T09:13:41;94855.97;;;29.44;44.46
12101;BME280;6113;42.678;23.334;2022-08-11T09:16:11;94851.75;;;29.35;44.92
12101;BME280;6113;42.678;23.334;2022-08-11T09:18:39;94852.19;;;29.49;44.62
12101;BME280;6113;42.678;23.334;2022-08-11T09:21:09;94810.97;;;28.91;45.23
12101;BME280;6113;42.678;23.334;2022-08-11T09:23:37;94852.41;;;28.59;45.85
12101;BME280;6113;42.678;23.334;2022-08-11T09:26:24;94851.59;;;28.66;46.11
12101;BME280;6113;42.678;23.334;2022-08-11T09:29:09;94820.00;;;28.65;45.66
12101;BME280;6113;42.678;23.334;2022-08-11T09:31:36;94849.91;;;28.87;44.77
12101;BME280;6113;42.678;23.334;2022-08-11T09:34:03;94859.38;;;29.08;43.76
12101;BME280;6113;42.678;23.334;2022-08-11T09:36:31;94848.97;;;29.35;43.53
12101;BME280;6113;42.678;23.334;2022-08-11T09:39:17;94837.69;;;29.69;42.71
12101;BME280;6113;42.678;23.334;2022-08-11T09:42:03;94846.47;;;29.56;42.42
12101;BME280;6113;42.678;23.334;2022-08-11T09:44:34;94845.34;;;29.42;42.56
12101;BME280;6113;42.678;23.334;2022-08-11T09:47:19;94836.75;;;29.40;42.60
12101;BME280;6113;42.678;23.334;2022-08-11T09:49:50;94823.78;;;29.45;42.80
12101;BME280;6113;42.678;23.334;2022-08-11T09:52:18;94836.28;;;29.87;42.80
12101;BME280;6113;42.678;23.334;2022-08-11T09:54:47;94841.31;;;30.05;42.64
12101;BME280;6113;42.678;23.334;2022-08-11T09:57:18;94823.50;;;29.93;43.53
12101;BME280;6113;42.678;23.334;2022-08-11T10:00:06;94813.84;;;29.60;44.19
12101;BME280;6113;42.678;23.334;2022-08-11T10:02:34;94825.03;;;29.51;44.32
12101;BME280;6113;42.678;23.334;2022-08-11T10:05:06;94818.78;;;29.43;44.55
12101;BME280;6113;42.678;23.334;2022-08-11T10:07:51;94818.94;;;29.71;44.07
12101;BME280;6113;42.678;23.334;2022-08-11T10:10:21;94809.19;;;29.99;43.28
12101;BME280;6113;42.678;23.334;2022-08-11T10:12:55;94807.13;;;29.99;42.25
12101;BME280;6113;42.678;23.334;2022-08-11T10:15:25;94810.34;;;29.96;43.09
12101;BME280;6113;42.678;23.334;2022-08-11T10:18:07;94801.06;;;30.03;43.10
12101;BME280;6113;42.678;23.334;2022-08-11T10:20:56;94815.63;;;30.18;42.46
12101;BME280;6113;42.678;23.334;2022-08-11T10:23:25;94810.88;;;30.11;41.90
12101;BME280;6113;42.678;23.334;2022-08-11T10:26:11;94811.69;;;29.95;42.31
12101;BME280;6113;42.678;23.334;2022-08-11T10:28:59;94818.06;;;29.95;42.34
12101;BME280;6113;42.678;23.334;2022-08-11T10:31:27;94813.59;;;30.28;41.25
12101;BME280;6113;42.678;23.334;2022-08-11T10:34:11;94818.22;;;29.97;41.90
12101;BME280;6113;42.678;23.334;2022-08-11T10:36:41;94807.44;;;29.77;40.89
12101;BME280;6113;42.678;23.334;2022-08-11T10:39:14;94808.50;;;30.08;40.80
12101;BME280;6113;42.678;23.334;2022-08-11T10:41:43;94813.16;;;30.32;40.93
12101;BME280;6113;42.678;23.334;2022-08-11T10:44:31;94803.31;;;30.49;40.81
12101;BME280;6113;42.678;23.334;2022-08-11T10:47:02;94805.59;;;30.25;40.18
12101;BME280;6113;42.678;23.334;2022-08-11T10:49:49;94791.69;;;30.27;40.18
12101;BME280;6113;42.678;23.334;2022-08-11T10:52:38;94795.34;;;30.55;40.32
12101;BME280;6113;42.678;23.334;2022-08-11T10:55:24;94792.13;;;30.87;38.45
12101;BME280;6113;42.678;23.334;2022-08-11T10:58:09;94785.19;;;31.07;38.66
12101;BME280;6113;42.678;23.334;2022-08-11T11:00:55;94787.72;;;31.03;38.09
12101;BME280;6113;42.678;23.334;2022-08-11T11:03:24;94746.00;;;30.26;38.03
12101;BME280;6113;42.678;23.334;2022-08-11T11:05:56;94747.84;;;30.59;37.60
12101;BME280;6113;42.678;23.334;2022-08-11T11:08:28;94778.03;;;30.68;37.81
12101;BME280;6113;42.678;23.334;2022-08-11T11:11:14;94780.69;;;30.66;38.80
12101;BME280;6113;42.678;23.334;2022-08-11T11:13:46;94788.31;;;31.11;38.71
12101;BME280;6113;42.678;23.334;2022-08-11T11:16:34;94777.44;;;31.36;38.05
12101;BME280;6113;42.678;23.334;2022-08-11T11:19:21;94774.22;;;31.21;37.70
12101;BME280;6113;42.678;23.334;2022-08-11T11:21:52;94770.50;;;30.99;37.60
12101;BME280;6113;42.678;23.334;2022-08-11T11:24:43;94780.91;;;31.16;37.55
12101;BME280;6113;42.678;23.334;2022-08-11T11:27:19;94781.19;;;31.10;36.55
12101;BME280;6113;42.678;23.334;2022-08-11T11:29:58;94777.75;;;31.40;36.79
12101;BME280;6113;42.678;23.334;2022-08-11T11:32:46;94780.47;;;31.78;36.42
12101;BME280;6113;42.678;23.334;2022-08-11T11:35:28;94777.41;;;31.64;37.53
12101;BME280;6113;42.678;23.334;2022-08-11T11:37:59;94781.28;;;31.50;37.53
12101;BME280;6113;42.678;23.334;2022-08-11T11:40:27;94777.00;;;31.30;37.98
12101;BME280;6113;42.678;23.334;2022-08-11T11:42:56;94758.22;;;31.04;38.00
12101;BME280;6113;42.678;23.334;2022-08-11T11:45:24;94765.47;;;30.98;38.29
12101;BME280;6113;42.678;23.334;2022-08-11T11:47:54;94652.19;;;30.03;38.50
12101;BME280;6113;42.678;23.334;2022-08-11T11:50:24;94762.38;;;30.84;37.95
12101;BME280;6113;42.678;23.334;2022-08-11T11:52:52;94771.97;;;30.81;37.24
12101;BME280;6113;42.678;23.334;2022-08-11T11:55:21;94769.47;;;31.04;37.94
12101;BME280;6113;42.678;23.334;2022-08-11T11:57:50;94591.47;;;29.98;37.57
12101;BME280;6113;42.678;23.334;2022-08-11T12:00:35;94762.63;;;31.35;38.22
12101;BME280;6113;42.678;23.334;2022-08-11T12:03:22;94764.22;;;31.57;38.96
12101;BME280;6113;42.678;23.334;2022-08-11T12:05:49;94772.06;;;31.59;38.57
12101;BME280;6113;42.678;23.334;2022-08-11T12:08:18;94762.75;;;31.56;38.45
12101;BME280;6113;42.678;23.334;2022-08-11T12:10:48;94751.59;;;31.68;38.19
12101;BME280;6113;42.678;23.334;2022-08-11T12:13:37;94756.97;;;31.64;38.68
12101;BME280;6113;42.678;23.334;2022-08-11T12:16:08;94736.94;;;31.60;38.45
12101;BME280;6113;42.678;23.334;2022-08-11T12:18:37;94728.56;;;31.41;39.01
12101;BME280;6113;42.678;23.334;2022-08-11T12:21:07;94731.13;;;31.18;39.22
12101;BME280;6113;42.678;23.334;2022-08-11T12:23:36;94758.97;;;31.14;40.05
12101;BME280;6113;42.678;23.334;2022-08-11T12:26:21;94724.59;;;30.78;40.56
12101;BME280;6113;42.678;23.334;2022-08-11T12:29:08;94751.69;;;30.92;40.68
12101;BME280;6113;42.678;23.334;2022-08-11T12:31:37;94756.44;;;30.80;41.05
12101;BME280;6113;42.678;23.334;2022-08-11T12:34:07;94751.25;;;30.67;41.51
12101;BME280;6113;42.678;23.334;2022-08-11T12:36:36;94733.06;;;30.59;41.68
12101;BME280;6113;42.678;23.334;2022-08-11T12:39:06;94758.50;;;30.89;41.74
12101;BME280;6113;42.678;23.334;2022-08-11T12:41:33;94751.97;;;30.96;41.35
12101;BME280;6113;42.678;23.334;2022-08-11T12:44:20;94764.72;;;30.78;41.18
12101;BME280;6113;42.678;23.334;2022-08-11T12:47:16;94766.03;;;30.58;42.11
12101;BME280;6113;42.678;23.334;2022-08-11T12:49:47;94763.19;;;30.39;41.10
12101;BME280;6113;42.678;23.334;2022-08-11T12:52:34;94757.94;;;30.17;41.97
12101;BME280;6113;42.678;23.334;2022-08-11T12:55:09;94778.66;;;30.22;42.51
12101;BME280;6113;42.678;23.334;2022-08-11T12:57:38;94773.75;;;30.13;43.34
12101;BME280;6113;42.678;23.334;2022-08-11T13:00:26;94783.06;;;30.15;43.87
12101;BME280;6113;42.678;23.334;2022-08-11T13:03:13;94763.75;;;30.29;43.12
12101;BME280;6113;42.678;23.334;2022-08-11T13:06:01;94763.63;;;30.36;42.40
12101;BME280;6113;42.678;23.334;2022-08-11T13:08:32;94757.69;;;30.41;42.28
12101;BME280;6113;42.678;23.334;2022-08-11T13:11:00;94765.72;;;30.45;42.39
12101;BME280;6113;42.678;23.334;2022-08-11T13:13:46;94768.38;;;30.43;42.68
12101;BME280;6113;42.678;23.334;2022-08-11T13:16:14;94748.22;;;30.28;43.13
12101;BME280;6113;42.678;23.334;2022-08-11T13:18:42;94745.72;;;30.32;43.13
12101;BME280;6113;42.678;23.334;2022-08-11T13:21:11;94760.72;;;30.53;42.82
12101;BME280;6113;42.678;23.334;2022-08-11T13:23:39;94765.59;;;30.52;42.60
12101;BME280;6113;42.678;23.334;2022-08-11T13:26:07;94761.56;;;30.46;42.48
12101;BME280;6113;42.678;23.334;2022-08-11T13:28:35;94751.94;;;30.39;42.27
12101;BME280;6113;42.678;23.334;2022-08-11T13:31:02;94754.59;;;30.38;42.25
12101;BME280;6113;42.678;23.334;2022-08-11T13:33:41;94737.69;;;30.19;42.35
12101;BME280;6113;42.678;23.334;2022-08-11T13:36:10;94714.00;;;30.03;42.72
12101;BME280;6113;42.678;23.334;2022-08-11T13:38:41;94755.75;;;30.35;42.29
12101;BME280;6113;42.678;23.334;2022-08-11T13:41:09;94718.75;;;30.10;41.45
12101;BME280;6113;42.678;23.334;2022-08-11T13:43:55;94750.56;;;30.22;40.70
12101;BME280;6113;42.678;23.334;2022-08-11T13:46:22;94751.75;;;30.19;41.04
12101;BME280;6113;42.678;23.334;2022-08-11T13:48:50;94748.63;;;30.15;40.48
12101;BME280;6113;42.678;23.334;2022-08-11T13:51:20;94746.25;;;30.11;39.33
12101;BME280;6113;42.678;23.334;2022-08-11T13:53:58;94719.41;;;29.91;39.07
12101;BME280;6113;42.678;23.334;2022-08-11T13:56:27;94705.34;;;29.82;39.53
12101;BME280;6113;42.678;23.334;2022-08-11T13:58:55;94729.38;;;30.02;39.80
12101;BME280;6113;42.678;23.334;2022-08-11T14:01:26;94732.03;;;30.00;39.64
12101;BME280;6113;42.678;23.334;2022-08-11T14:03:54;94730.56;;;29.99;39.23
12101;BME280;6113;42.678;23.334;2022-08-11T14:06:26;94725.38;;;29.95;39.50
12101;BME280;6113;42.678;23.334;2022-08-11T14:08:53;94736.00;;;29.97;39.55
12101;BME280;6113;42.678;23.334;2022-08-11T14:11:20;94717.03;;;29.88;39.14
12101;BME280;6113;42.678;23.334;2022-08-11T14:14:09;94728.44;;;29.90;38.87
12101;BME280;6113;42.678;23.334;2022-08-11T14:16:41;94728.41;;;29.80;38.76
12101;BME280;6113;42.678;23.334;2022-08-11T14:19:11;94722.34;;;29.74;39.01
12101;BME280;6113;42.678;23.334;2022-08-11T14:21:42;94727.19;;;29.74;39.31
12101;BME280;6113;42.678;23.334;2022-08-11T14:24:27;94725.69;;;29.73;39.15
12101;BME280;6113;42.678;23.334;2022-08-11T14:26:55;94719.34;;;29.72;39.33
12101;BME280;6113;42.678;23.334;2022-08-11T14:29:24;94724.97;;;29.72;39.12
12101;BME280;6113;42.678;23.334;2022-08-11T14:31:53;94729.97;;;29.64;39.39